sensor_id;sensor_type;location;lat;lon;timestamp;temperature;humidity
5723;DHT22;2886;49.722;8.612;2023-05-15T00:00:01;12.00;99.90
5723;DHT22;2886;49.722;8.612;2023-05-15T00:02:28;12.00;99.90
5723;DHT22;2886;49.722;8.612;2023-05-15T00:04:54;12.00;99.90
5723;DHT22;2886;49.722;8.612;2023-05-15T00:07:19;11.90;99.90
5723;DHT22;2886;49.722;8.612;2023-05-15T00:09:45;11.90;99.90
5723;DHT22;2886;49.722;8.612;2023-05-15T00:12:11;11.80;99.90
5723;DHT22;2886;49.722;8.612;2023-05-15T00:14:36;11.90;99.90
5723;DHT22;2886;49.722;8.612;2023-05-15T00:17:02;11.90;99.90
5723;DHT22;2886;49.722;8.612;2023-05-15T00:19:27;11.80;99.90
5723;DHT22;2886;49.722;8.612;2023-05-15T00:21:53;11.80;99.90
5723;DHT22;2886;49.722;8.612;2023-05-15T00:24:20;11.80;99.90
5723;DHT22;2886;49.722;8.612;2023-05-15T00:26:46;11.80;99.90
5723;DHT22;2886;49.722;8.612;2023-05-15T00:29:11;11.80;99.90
5723;DHT22;2886;49.722;8.612;2023-05-15T00:31:37;11.80;99.90
5723;DHT22;2886;49.722;8.612;2023-05-15T00:34:03;11.80;99.90
5723;DHT22;2886;49.722;8.612;2023-05-15T00:36:30;11.80;99.90
5723;DHT22;2886;49.722;8.612;2023-05-15T00:38:55;11.80;99.90
5723;DHT22;2886;49.722;8.612;2023-05-15T00:41:22;11.70;99.90
5723;DHT22;2886;49.722;8.612;2023-05-15T00:43:49;11.70;99.90
5723;DHT22;2886;49.722;8.612;2023-05-15T00:46:16;11.70;99.90
5723;DHT22;2886;49.722;8.612;2023-05-15T00:48:44;11.60;99.90
5723;DHT22;2886;49.722;8.612;2023-05-15T00:51:10;11.60;99.90
5723;DHT22;2886;49.722;8.612;2023-05-15T00:53:36;11.50;99.90
5723;DHT22;2886;49.722;8.612;2023-05-15T00:56:04;11.50;99.90
5723;DHT22;2886;49.722;8.612;2023-05-15T00:58:30;11.50;99.90
5723;DHT22;2886;49.722;8.612;2023-05-15T01:00:56;11.40;99.90
5723;DHT22;2886;49.722;8.612;2023-05-15T01:03:22;11.30;99.90
5723;DHT22;2886;49.722;8.612;2023-05-15T01:05:48;11.40;99.90
5723;DHT22;2886;49.722;8.612;2023-05-15T01:11:14;11.20;99.90
5723;DHT22;2886;49.722;8.612;2023-05-15T01:13:41;11.20;99.90
5723;DHT22;2886;49.722;8.612;2023-05-15T01:16:08;11.20;99.90
5723;DHT22;2886;49.722;8.612;2023-05-15T01:18:34;11.20;99.90
5723;DHT22;2886;49.722;8.612;2023-05-15T01:26:44;11.10;99.90
5723;DHT22;2886;49.722;8.612;2023-05-15T01:29:23;11.10;99.90
5723;DHT22;2886;49.722;8.612;2023-05-15T01:31:56;11.10;99.90
5723;DHT22;2886;49.722;8.612;2023-05-15T01:34:28;11.00;99.90
5723;DHT22;2886;49.722;8.612;2023-05-15T01:36:57;11.00;99.90
5723;DHT22;2886;49.722;8.612;2023-05-15T01:39:26;11.00;99.90
5723;DHT22;2886;49.722;8.612;2023-05-15T01:42:09;11.00;99.90
5723;DHT22;2886;49.722;8.612;2023-05-15T01:44:37;11.00;99.90
5723;DHT22;2886;49.722;8.612;2023-05-15T01:47:11;10.90;99.90
5723;DHT22;2886;49.722;8.612;2023-05-15T01:49:38;10.90;99.90
5723;DHT22;2886;49.722;8.612;2023-05-15T01:52:09;10.90;99.90
5723;DHT22;2886;49.722;8.612;2023-05-15T01:54:38;10.90;99.90
5723;DHT22;2886;49.722;8.612;2023-05-15T01:57:05;10.90;99.90
5723;DHT22;2886;49.722;8.612;2023-05-15T01:59:32;10.90;99.90
5723;DHT22;2886;49.722;8.612;2023-05-15T02:01:59;10.80;99.90
5723;DHT22;2886;49.722;8.612;2023-05-15T02:04:25;10.80;99.90
5723;DHT22;2886;49.722;8.612;2023-05-15T02:06:52;10.80;99.90
5723;DHT22;2886;49.722;8.612;2023-05-15T02:09:19;10.70;99.90
5723;DHT22;2886;49.722;8.612;2023-05-15T02:11:46;10.70;99.90
5723;DHT22;2886;49.722;8.612;2023-05-15T02:14:14;10.70;99.90
5723;DHT22;2886;49.722;8.612;2023-05-15T02:16:40;10.70;99.90
5723;DHT22;2886;49.722;8.612;2023-05-15T02:19:06;10.70;99.90
5723;DHT22;2886;49.722;8.612;2023-05-15T02:21:33;10.70;99.90
5723;DHT22;2886;49.722;8.612;2023-05-15T02:23:59;10.60;99.90
5723;DHT22;2886;49.722;8.612;2023-05-15T02:37:31;10.50;99.90
5723;DHT22;2886;49.722;8.612;2023-05-15T02:40:00;10.50;99.90
5723;DHT22;2886;49.722;8.612;2023-05-15T02:42:27;10.50;99.90
5723;DHT22;2886;49.722;8.612;2023-05-15T02:44:54;10.40;99.90
5723;DHT22;2886;49.722;8.612;2023-05-15T02:47:21;10.40;99.90
5723;DHT22;2886;49.722;8.612;2023-05-15T02:49:48;10.40;99.90
5723;DHT22;2886;49.722;8.612;2023-05-15T02:52:14;10.40;99.90
5723;DHT22;2886;49.722;8.612;2023-05-15T02:54:40;10.30;99.90
5723;DHT22;2886;49.722;8.612;2023-05-15T02:57:06;10.30;99.90
5723;DHT22;2886;49.722;8.612;2023-05-15T02:59:32;10.30;99.90
5723;DHT22;2886;49.722;8.612;2023-05-15T03:01:58;10.20;99.90
5723;DHT22;2886;49.722;8.612;2023-05-15T03:04:24;10.20;99.90
5723;DHT22;2886;49.722;8.612;2023-05-15T03:06:50;10.20;99.90
5723;DHT22;2886;49.722;8.612;2023-05-15T03:09:15;10.20;99.90
5723;DHT22;2886;49.722;8.612;2023-05-15T03:11:42;10.10;99.90
5723;DHT22;2886;49.722;8.612;2023-05-15T03:14:10;10.10;99.90
5723;DHT22;2886;49.722;8.612;2023-05-15T03:16:36;10.10;99.90
5723;DHT22;2886;49.722;8.612;2023-05-15T03:19:03;10.00;99.90
5723;DHT22;2886;49.722;8.612;2023-05-15T03:21:29;10.00;99.90
5723;DHT22;2886;49.722;8.612;2023-05-15T03:23:55;10.00;99.90
5723;DHT22;2886;49.722;8.612;2023-05-15T03:26:30;10.00;99.90
5723;DHT22;2886;49.722;8.612;2023-05-15T03:29:01;9.90;99.90
5723;DHT22;2886;49.722;8.612;2023-05-15T03:31:29;9.90;99.90
5723;DHT22;2886;49.722;8.612;2023-05-15T03:33:55;9.90;99.90
5723;DHT22;2886;49.722;8.612;2023-05-15T03:36:21;9.90;99.90
5723;DHT22;2886;49.722;8.612;2023-05-15T03:38:51;9.90;99.90
5723;DHT22;2886;49.722;8.612;2023-05-15T03:41:16;9.90;99.90
5723;DHT22;2886;49.722;8.612;2023-05-15T03:43:42;9.90;99.90
5723;DHT22;2886;49.722;8.612;2023-05-15T03:49:18;10.00;99.90
5723;DHT22;2886;49.722;8.612;2023-05-15T03:51:44;10.10;99.90
5723;DHT22;2886;49.722;8.612;2023-05-15T03:54:10;10.10;99.90
5723;DHT22;2886;49.722;8.612;2023-05-15T03:56:35;10.10;99.90
5723;DHT22;2886;49.722;8.612;2023-05-15T03:59:01;10.20;99.90
5723;DHT22;2886;49.722;8.612;2023-05-15T04:01:27;10.20;99.90
5723;DHT22;2886;49.722;8.612;2023-05-15T04:03:53;10.20;99.90
5723;DHT22;2886;49.722;8.612;2023-05-15T04:06:18;10.20;99.90
5723;DHT22;2886;49.722;8.612;2023-05-15T04:08:44;10.30;99.90
5723;DHT22;2886;49.722;8.612;2023-05-15T04:11:10;10.30;99.90
5723;DHT22;2886;49.722;8.612;2023-05-15T04:13:36;10.30;99.90
5723;DHT22;2886;49.722;8.612;2023-05-15T04:16:02;10.30;99.90
5723;DHT22;2886;49.722;8.612;2023-05-15T04:18:28;10.30;99.90
5723;DHT22;2886;49.722;8.612;2023-05-15T04:20:54;10.30;99.90
5723;DHT22;2886;49.722;8.612;2023-05-15T04:23:19;10.20;99.90
5723;DHT22;2886;49.722;8.612;2023-05-15T04:25:45;10.20;99.90
5723;DHT22;2886;49.722;8.612;2023-05-15T04:28:12;10.20;99.90
5723;DHT22;2886;49.722;8.612;2023-05-15T04:30:38;10.20;99.90
5723;DHT22;2886;49.722;8.612;2023-05-15T04:33:03;10.20;99.90
5723;DHT22;2886;49.722;8.612;2023-05-15T04:35:29;10.30;99.90
5723;DHT22;2886;49.722;8.612;2023-05-15T04:37:55;10.30;99.90
5723;DHT22;2886;49.722;8.612;2023-05-15T04:40:21;10.30;99.90
5723;DHT22;2886;49.722;8.612;2023-05-15T04:42:47;10.30;99.90
5723;DHT22;2886;49.722;8.612;2023-05-15T04:45:14;10.40;99.90
5723;DHT22;2886;49.722;8.612;2023-05-15T04:47:39;10.40;99.90
5723;DHT22;2886;49.722;8.612;2023-05-15T04:50:05;10.50;99.90
5723;DHT22;2886;49.722;8.612;2023-05-15T04:52:31;10.60;99.90
5723;DHT22;2886;49.722;8.612;2023-05-15T04:54:57;10.60;99.90
5723;DHT22;2886;49.722;8.612;2023-05-15T04:57:24;10.70;99.90
5723;DHT22;2886;49.722;8.612;2023-05-15T04:59:50;10.70;99.90
5723;DHT22;2886;49.722;8.612;2023-05-15T05:02:19;10.90;99.90
5723;DHT22;2886;49.722;8.612;2023-05-15T05:04:45;10.90;99.90
5723;DHT22;2886;49.722;8.612;2023-05-15T05:07:11;11.10;99.90
5723;DHT22;2886;49.722;8.612;2023-05-15T05:09:38;11.10;99.90
5723;DHT22;2886;49.722;8.612;2023-05-15T05:12:05;11.30;99.90
5723;DHT22;2886;49.722;8.612;2023-05-15T05:14:31;11.40;99.90
5723;DHT22;2886;49.722;8.612;2023-05-15T05:16:56;11.60;99.90
5723;DHT22;2886;49.722;8.612;2023-05-15T05:19:22;11.80;99.90
5723;DHT22;2886;49.722;8.612;2023-05-15T05:21:47;12.00;99.90
5723;DHT22;2886;49.722;8.612;2023-05-15T05:24:13;12.00;99.90
5723;DHT22;2886;49.722;8.612;2023-05-15T05:26:41;12.20;99.90
5723;DHT22;2886;49.722;8.612;2023-05-15T05:29:07;12.30;99.90
5723;DHT22;2886;49.722;8.612;2023-05-15T05:31:33;12.40;99.90
5723;DHT22;2886;49.722;8.612;2023-05-15T05:33:58;12.70;99.90
5723;DHT22;2886;49.722;8.612;2023-05-15T05:36:24;13.20;99.90
5723;DHT22;2886;49.722;8.612;2023-05-15T05:38:49;13.80;99.90
5723;DHT22;2886;49.722;8.612;2023-05-15T05:41:15;14.60;99.90
5723;DHT22;2886;49.722;8.612;2023-05-15T05:43:40;14.80;99.90
5723;DHT22;2886;49.722;8.612;2023-05-15T05:46:06;14.90;99.90
5723;DHT22;2886;49.722;8.612;2023-05-15T05:48:32;15.00;99.90
5723;DHT22;2886;49.722;8.612;2023-05-15T05:50:57;15.00;99.90
5723;DHT22;2886;49.722;8.612;2023-05-15T05:53:23;15.00;99.90
5723;DHT22;2886;49.722;8.612;2023-05-15T05:55:48;15.00;99.90
5723;DHT22;2886;49.722;8.612;2023-05-15T05:58:14;15.20;99.90
5723;DHT22;2886;49.722;8.612;2023-05-15T06:00:41;15.70;99.90
5723;DHT22;2886;49.722;8.612;2023-05-15T06:03:07;16.10;99.90
5723;DHT22;2886;49.722;8.612;2023-05-15T06:05:33;16.30;99.90
5723;DHT22;2886;49.722;8.612;2023-05-15T06:08:00;16.30;99.90
5723;DHT22;2886;49.722;8.612;2023-05-15T06:10:28;16.80;99.90
5723;DHT22;2886;49.722;8.612;2023-05-15T06:12:55;17.00;99.90
5723;DHT22;2886;49.722;8.612;2023-05-15T06:15:20;17.10;99.90
5723;DHT22;2886;49.722;8.612;2023-05-15T06:17:46;17.70;99.90
5723;DHT22;2886;49.722;8.612;2023-05-15T06:20:12;18.00;99.90
5723;DHT22;2886;49.722;8.612;2023-05-15T06:22:38;18.40;99.90
5723;DHT22;2886;49.722;8.612;2023-05-15T06:25:05;18.60;99.80
5723;DHT22;2886;49.722;8.612;2023-05-15T06:27:31;18.60;96.50
5723;DHT22;2886;49.722;8.612;2023-05-15T06:29:57;18.50;94.50
5723;DHT22;2886;49.722;8.612;2023-05-15T06:32:22;18.60;95.60
5723;DHT22;2886;49.722;8.612;2023-05-15T06:34:48;18.70;95.80
5723;DHT22;2886;49.722;8.612;2023-05-15T06:37:14;18.60;94.40
5723;DHT22;2886;49.722;8.612;2023-05-15T06:39:39;19.20;93.00
5723;DHT22;2886;49.722;8.612;2023-05-15T06:42:05;19.90;87.30
5723;DHT22;2886;49.722;8.612;2023-05-15T06:44:31;19.80;80.10
5723;DHT22;2886;49.722;8.612;2023-05-15T06:46:57;19.30;81.00
5723;DHT22;2886;49.722;8.612;2023-05-15T06:49:23;19.00;86.40
5723;DHT22;2886;49.722;8.612;2023-05-15T06:51:50;18.50;90.00
5723;DHT22;2886;49.722;8.612;2023-05-15T06:54:16;18.10;91.50
5723;DHT22;2886;49.722;8.612;2023-05-15T06:56:41;17.90;93.00
5723;DHT22;2886;49.722;8.612;2023-05-15T06:59:07;17.70;94.10
5723;DHT22;2886;49.722;8.612;2023-05-15T07:01:33;17.50;94.60
5723;DHT22;2886;49.722;8.612;2023-05-15T07:03:58;17.20;96.20
5723;DHT22;2886;49.722;8.612;2023-05-15T07:06:24;17.10;97.70
5723;DHT22;2886;49.722;8.612;2023-05-15T07:08:51;16.90;98.60
5723;DHT22;2886;49.722;8.612;2023-05-15T07:11:16;16.60;99.30
5723;DHT22;2886;49.722;8.612;2023-05-15T07:13:42;16.50;99.90
5723;DHT22;2886;49.722;8.612;2023-05-15T07:16:07;16.40;99.20
5723;DHT22;2886;49.722;8.612;2023-05-15T07:18:33;16.20;99.40
5723;DHT22;2886;49.722;8.612;2023-05-15T07:20:59;16.00;99.90
5723;DHT22;2886;49.722;8.612;2023-05-15T07:23:24;15.90;99.60
5723;DHT22;2886;49.722;8.612;2023-05-15T07:25:52;15.90;99.90
5723;DHT22;2886;49.722;8.612;2023-05-15T07:28:18;15.90;99.90
5723;DHT22;2886;49.722;8.612;2023-05-15T07:30:44;16.00;99.50
5723;DHT22;2886;49.722;8.612;2023-05-15T07:33:09;16.00;99.50
5723;DHT22;2886;49.722;8.612;2023-05-15T07:35:35;16.10;99.00
5723;DHT22;2886;49.722;8.612;2023-05-15T07:38:00;16.10;99.50
5723;DHT22;2886;49.722;8.612;2023-05-15T07:40:26;16.10;99.50
5723;DHT22;2886;49.722;8.612;2023-05-15T07:42:52;16.10;99.60
5723;DHT22;2886;49.722;8.612;2023-05-15T07:45:17;16.40;99.10
5723;DHT22;2886;49.722;8.612;2023-05-15T07:47:45;16.70;98.70
5723;DHT22;2886;49.722;8.612;2023-05-15T07:50:13;16.90;97.60
5723;DHT22;2886;49.722;8.612;2023-05-15T07:52:39;16.90;96.70
5723;DHT22;2886;49.722;8.612;2023-05-15T07:55:05;16.90;97.30
5723;DHT22;2886;49.722;8.612;2023-05-15T07:57:31;17.10;96.70
5723;DHT22;2886;49.722;8.612;2023-05-15T07:59:57;17.20;96.70
5723;DHT22;2886;49.722;8.612;2023-05-15T08:02:23;17.40;95.70
5723;DHT22;2886;49.722;8.612;2023-05-15T08:04:48;17.40;95.20
5723;DHT22;2886;49.722;8.612;2023-05-15T08:07:14;17.40;96.40
5723;DHT22;2886;49.722;8.612;2023-05-15T08:09:40;17.40;96.40
5723;DHT22;2886;49.722;8.612;2023-05-15T08:12:19;17.30;95.80
5723;DHT22;2886;49.722;8.612;2023-05-15T08:14:53;17.10;97.70
5723;DHT22;2886;49.722;8.612;2023-05-15T08:17:20;17.10;97.60
5723;DHT22;2886;49.722;8.612;2023-05-15T08:19:46;17.20;97.90
5723;DHT22;2886;49.722;8.612;2023-05-15T08:22:12;17.50;96.30
5723;DHT22;2886;49.722;8.612;2023-05-15T08:24:38;17.70;95.20
5723;DHT22;2886;49.722;8.612;2023-05-15T08:27:05;17.70;95.10
5723;DHT22;2886;49.722;8.612;2023-05-15T08:29:31;17.70;95.10
5723;DHT22;2886;49.722;8.612;2023-05-15T08:31:57;17.80;95.20
5723;DHT22;2886;49.722;8.612;2023-05-15T08:34:23;17.80;94.00
5723;DHT22;2886;49.722;8.612;2023-05-15T08:36:49;18.00;94.20
5723;DHT22;2886;49.722;8.612;2023-05-15T08:39:15;18.40;92.60
5723;DHT22;2886;49.722;8.612;2023-05-15T08:42:02;18.70;89.60
5723;DHT22;2886;49.722;8.612;2023-05-15T08:44:30;19.00;84.20
5723;DHT22;2886;49.722;8.612;2023-05-15T08:46:56;18.60;88.00
5723;DHT22;2886;49.722;8.612;2023-05-15T08:52:11;18.60;89.00
5723;DHT22;2886;49.722;8.612;2023-05-15T08:54:39;18.80;89.70
5723;DHT22;2886;49.722;8.612;2023-05-15T08:57:05;19.10;88.40
5723;DHT22;2886;49.722;8.612;2023-05-15T08:59:31;19.20;85.60
5723;DHT22;2886;49.722;8.612;2023-05-15T09:01:57;19.50;82.80
5723;DHT22;2886;49.722;8.612;2023-05-15T09:04:23;19.40;80.80
5723;DHT22;2886;49.722;8.612;2023-05-15T09:06:49;19.40;81.80
5723;DHT22;2886;49.722;8.612;2023-05-15T09:09:17;19.60;78.00
5723;DHT22;2886;49.722;8.612;2023-05-15T09:11:44;19.50;74.10
5723;DHT22;2886;49.722;8.612;2023-05-15T09:14:11;19.50;72.30
5723;DHT22;2886;49.722;8.612;2023-05-15T09:16:37;19.70;74.00
5723;DHT22;2886;49.722;8.612;2023-05-15T09:19:05;19.90;75.50
5723;DHT22;2886;49.722;8.612;2023-05-15T09:21:31;20.10;82.70
5723;DHT22;2886;49.722;8.612;2023-05-15T09:24:34;20.10;79.90
5723;DHT22;2886;49.722;8.612;2023-05-15T09:27:04;19.90;77.20
5723;DHT22;2886;49.722;8.612;2023-05-15T09:29:31;19.40;82.20
5723;DHT22;2886;49.722;8.612;2023-05-15T09:32:25;19.40;83.20
5723;DHT22;2886;49.722;8.612;2023-05-15T09:34:47;19.50;82.20
5723;DHT22;2886;49.722;8.612;2023-05-15T09:37:30;19.90;80.70
5723;DHT22;2886;49.722;8.612;2023-05-15T09:40:09;20.00;81.00
5723;DHT22;2886;49.722;8.612;2023-05-15T09:42:37;19.90;82.10
5723;DHT22;2886;49.722;8.612;2023-05-15T09:45:03;19.60;82.20
5723;DHT22;2886;49.722;8.612;2023-05-15T09:47:29;19.80;80.70
5723;DHT22;2886;49.722;8.612;2023-05-15T09:49:56;20.20;76.00
5723;DHT22;2886;49.722;8.612;2023-05-15T09:52:22;20.30;73.70
5723;DHT22;2886;49.722;8.612;2023-05-15T09:54:48;20.20;72.10
5723;DHT22;2886;49.722;8.612;2023-05-15T09:57:14;20.40;67.00
5723;DHT22;2886;49.722;8.612;2023-05-15T09:59:44;20.30;67.30
5723;DHT22;2886;49.722;8.612;2023-05-15T10:02:14;20.20;64.70
5723;DHT22;2886;49.722;8.612;2023-05-15T10:04:53;20.30;64.10
5723;DHT22;2886;49.722;8.612;2023-05-15T10:07:34;20.60;61.50
5723;DHT22;2886;49.722;8.612;2023-05-15T10:10:01;20.60;59.40
5723;DHT22;2886;49.722;8.612;2023-05-15T10:12:28;20.70;57.60
5723;DHT22;2886;49.722;8.612;2023-05-15T10:14:56;21.00;58.20
5723;DHT22;2886;49.722;8.612;2023-05-15T10:17:23;21.30;57.60
5723;DHT22;2886;49.722;8.612;2023-05-15T10:19:49;21.80;59.10
5723;DHT22;2886;49.722;8.612;2023-05-15T10:22:21;22.00;55.10
5723;DHT22;2886;49.722;8.612;2023-05-15T10:24:51;22.10;55.80
5723;DHT22;2886;49.722;8.612;2023-05-15T10:27:23;22.30;55.20
5723;DHT22;2886;49.722;8.612;2023-05-15T10:29:50;22.00;57.60
5723;DHT22;2886;49.722;8.612;2023-05-15T10:32:16;22.10;57.90
5723;DHT22;2886;49.722;8.612;2023-05-15T10:34:42;21.90;56.60
5723;DHT22;2886;49.722;8.612;2023-05-15T10:37:09;21.60;58.30
5723;DHT22;2886;49.722;8.612;2023-05-15T10:39:36;21.00;56.50
5723;DHT22;2886;49.722;8.612;2023-05-15T10:42:05;20.20;58.70
5723;DHT22;2886;49.722;8.612;2023-05-15T10:44:32;20.10;60.40
5723;DHT22;2886;49.722;8.612;2023-05-15T10:46:58;20.30;60.60
5723;DHT22;2886;49.722;8.612;2023-05-15T10:49:24;20.60;57.10
5723;DHT22;2886;49.722;8.612;2023-05-15T10:51:51;20.80;56.50
5723;DHT22;2886;49.722;8.612;2023-05-15T10:54:17;21.10;54.50
5723;DHT22;2886;49.722;8.612;2023-05-15T10:56:43;21.50;52.60
5723;DHT22;2886;49.722;8.612;2023-05-15T10:59:10;21.50;49.90
5723;DHT22;2886;49.722;8.612;2023-05-15T11:01:37;21.50;50.70
5723;DHT22;2886;49.722;8.612;2023-05-15T11:04:13;21.80;51.60
5723;DHT22;2886;49.722;8.612;2023-05-15T11:06:44;21.90;49.90
5723;DHT22;2886;49.722;8.612;2023-05-15T11:09:35;21.90;50.00
5723;DHT22;2886;49.722;8.612;2023-05-15T11:12:06;22.10;47.00
5723;DHT22;2886;49.722;8.612;2023-05-15T11:14:38;22.10;46.10
5723;DHT22;2886;49.722;8.612;2023-05-15T11:17:08;22.00;48.50
5723;DHT22;2886;49.722;8.612;2023-05-15T11:19:35;21.90;50.20
5723;DHT22;2886;49.722;8.612;2023-05-15T11:33:22;18.10;99.90
5723;DHT22;2886;49.722;8.612;2023-05-15T11:40:56;16.50;99.90
5723;DHT22;2886;49.722;8.612;2023-05-15T11:43:34;16.90;99.90
5723;DHT22;2886;49.722;8.612;2023-05-15T11:46:09;17.20;99.90
5723;DHT22;2886;49.722;8.612;2023-05-15T11:48:41;17.40;99.90
5723;DHT22;2886;49.722;8.612;2023-05-15T11:51:22;17.80;99.90
5723;DHT22;2886;49.722;8.612;2023-05-15T11:53:50;18.20;99.90
5723;DHT22;2886;49.722;8.612;2023-05-15T11:56:20;18.50;99.90
5723;DHT22;2886;49.722;8.612;2023-05-15T11:58:48;18.20;99.90
5723;DHT22;2886;49.722;8.612;2023-05-15T12:01:14;17.80;99.90
5723;DHT22;2886;49.722;8.612;2023-05-15T12:03:40;17.60;99.90
5723;DHT22;2886;49.722;8.612;2023-05-15T12:06:06;17.40;99.90
5723;DHT22;2886;49.722;8.612;2023-05-15T12:08:33;17.70;99.90
5723;DHT22;2886;49.722;8.612;2023-05-15T12:11:00;17.80;99.90
5723;DHT22;2886;49.722;8.612;2023-05-15T12:13:26;17.80;99.90
5723;DHT22;2886;49.722;8.612;2023-05-15T12:15:53;17.90;99.90
5723;DHT22;2886;49.722;8.612;2023-05-15T12:18:19;17.90;99.90
5723;DHT22;2886;49.722;8.612;2023-05-15T12:20:45;18.10;99.90
5723;DHT22;2886;49.722;8.612;2023-05-15T12:23:14;18.40;99.90
5723;DHT22;2886;49.722;8.612;2023-05-15T12:25:40;18.50;99.90
5723;DHT22;2886;49.722;8.612;2023-05-15T12:28:06;18.60;99.90
5723;DHT22;2886;49.722;8.612;2023-05-15T12:30:33;18.60;99.90
5723;DHT22;2886;49.722;8.612;2023-05-15T12:33:03;18.70;99.90
5723;DHT22;2886;49.722;8.612;2023-05-15T12:35:32;18.70;99.90
5723;DHT22;2886;49.722;8.612;2023-05-15T12:37:59;18.90;99.90
5723;DHT22;2886;49.722;8.612;2023-05-15T12:40:25;19.20;99.90
5723;DHT22;2886;49.722;8.612;2023-05-15T12:42:52;19.60;99.90
5723;DHT22;2886;49.722;8.612;2023-05-15T12:45:20;19.80;99.90
5723;DHT22;2886;49.722;8.612;2023-05-15T12:47:47;20.00;99.90
5723;DHT22;2886;49.722;8.612;2023-05-15T12:50:15;19.60;99.90
5723;DHT22;2886;49.722;8.612;2023-05-15T12:52:54;19.40;99.90
5723;DHT22;2886;49.722;8.612;2023-05-15T12:55:29;19.50;99.90
5723;DHT22;2886;49.722;8.612;2023-05-15T12:58:03;19.90;99.90
5723;DHT22;2886;49.722;8.612;2023-05-15T13:00:34;20.40;99.90
5723;DHT22;2886;49.722;8.612;2023-05-15T13:03:01;20.40;99.90
5723;DHT22;2886;49.722;8.612;2023-05-15T13:05:30;19.60;99.90
5723;DHT22;2886;49.722;8.612;2023-05-15T13:08:02;19.40;99.90
5723;DHT22;2886;49.722;8.612;2023-05-15T13:10:31;19.00;99.90
5723;DHT22;2886;49.722;8.612;2023-05-15T13:12:57;18.60;99.90
5723;DHT22;2886;49.722;8.612;2023-05-15T13:15:25;18.20;99.90
5723;DHT22;2886;49.722;8.612;2023-05-15T13:18:01;18.00;99.90
5723;DHT22;2886;49.722;8.612;2023-05-15T13:20:28;17.90;99.90
5723;DHT22;2886;49.722;8.612;2023-05-15T13:22:54;18.20;99.90
5723;DHT22;2886;49.722;8.612;2023-05-15T13:25:20;18.20;99.90
5723;DHT22;2886;49.722;8.612;2023-05-15T13:27:47;18.50;99.90
5723;DHT22;2886;49.722;8.612;2023-05-15T13:30:13;18.70;99.90
5723;DHT22;2886;49.722;8.612;2023-05-15T13:32:39;18.80;99.90
5723;DHT22;2886;49.722;8.612;2023-05-15T13:35:05;18.60;99.90
5723;DHT22;2886;49.722;8.612;2023-05-15T13:37:31;18.40;99.90
5723;DHT22;2886;49.722;8.612;2023-05-15T13:39:56;18.40;99.90
5723;DHT22;2886;49.722;8.612;2023-05-15T13:42:22;18.60;99.90
5723;DHT22;2886;49.722;8.612;2023-05-15T13:44:47;18.90;99.90
5723;DHT22;2886;49.722;8.612;2023-05-15T13:47:13;18.90;99.90
5723;DHT22;2886;49.722;8.612;2023-05-15T13:49:39;18.90;99.90
5723;DHT22;2886;49.722;8.612;2023-05-15T13:52:05;18.90;99.90
5723;DHT22;2886;49.722;8.612;2023-05-15T13:54:31;19.20;99.90
5723;DHT22;2886;49.722;8.612;2023-05-15T13:56:56;19.50;99.90
5723;DHT22;2886;49.722;8.612;2023-05-15T13:59:22;19.90;99.90
5723;DHT22;2886;49.722;8.612;2023-05-15T14:01:47;20.30;99.90
5723;DHT22;2886;49.722;8.612;2023-05-15T14:04:13;20.30;99.90
5723;DHT22;2886;49.722;8.612;2023-05-15T14:06:39;19.60;99.90
5723;DHT22;2886;49.722;8.612;2023-05-15T14:09:05;18.90;99.90
5723;DHT22;2886;49.722;8.612;2023-05-15T14:11:31;18.80;99.90
5723;DHT22;2886;49.722;8.612;2023-05-15T14:13:57;19.00;99.90
5723;DHT22;2886;49.722;8.612;2023-05-15T14:16:23;19.10;99.90
5723;DHT22;2886;49.722;8.612;2023-05-15T14:18:48;19.10;99.90
5723;DHT22;2886;49.722;8.612;2023-05-15T14:21:14;19.00;99.90
5723;DHT22;2886;49.722;8.612;2023-05-15T14:23:40;19.10;99.90
5723;DHT22;2886;49.722;8.612;2023-05-15T14:26:05;19.20;99.90
5723;DHT22;2886;49.722;8.612;2023-05-15T14:28:32;19.10;99.90
5723;DHT22;2886;49.722;8.612;2023-05-15T14:30:58;19.30;99.90
5723;DHT22;2886;49.722;8.612;2023-05-15T14:33:24;19.80;99.90
5723;DHT22;2886;49.722;8.612;2023-05-15T14:35:51;20.20;99.90
5723;DHT22;2886;49.722;8.612;2023-05-15T14:38:16;20.30;99.90
5723;DHT22;2886;49.722;8.612;2023-05-15T14:40:42;20.30;99.90
5723;DHT22;2886;49.722;8.612;2023-05-15T14:43:08;19.50;99.90
5723;DHT22;2886;49.722;8.612;2023-05-15T14:45:33;18.50;99.90
5723;DHT22;2886;49.722;8.612;2023-05-15T14:47:59;18.40;99.90
5723;DHT22;2886;49.722;8.612;2023-05-15T14:50:25;18.60;99.90
5723;DHT22;2886;49.722;8.612;2023-05-15T14:52:51;18.70;99.90
5723;DHT22;2886;49.722;8.612;2023-05-15T14:55:18;18.60;99.90
5723;DHT22;2886;49.722;8.612;2023-05-15T14:57:46;18.00;99.90
5723;DHT22;2886;49.722;8.612;2023-05-15T15:00:16;17.90;99.90
5723;DHT22;2886;49.722;8.612;2023-05-15T15:02:42;18.00;99.90
5723;DHT22;2886;49.722;8.612;2023-05-15T15:05:08;18.20;99.90
5723;DHT22;2886;49.722;8.612;2023-05-15T15:07:56;18.30;99.90
5723;DHT22;2886;49.722;8.612;2023-05-15T15:10:22;18.50;99.90
5723;DHT22;2886;49.722;8.612;2023-05-15T15:12:50;18.80;99.90
5723;DHT22;2886;49.722;8.612;2023-05-15T15:15:16;18.80;99.90
5723;DHT22;2886;49.722;8.612;2023-05-15T15:17:42;18.90;99.90
5723;DHT22;2886;49.722;8.612;2023-05-15T15:20:08;18.30;99.90
5723;DHT22;2886;49.722;8.612;2023-05-15T15:22:34;18.30;99.90
5723;DHT22;2886;49.722;8.612;2023-05-15T15:24:59;18.20;99.90
5723;DHT22;2886;49.722;8.612;2023-05-15T15:27:25;18.00;99.90
5723;DHT22;2886;49.722;8.612;2023-05-15T15:29:51;18.30;99.90
5723;DHT22;2886;49.722;8.612;2023-05-15T15:32:17;18.00;93.00
5723;DHT22;2886;49.722;8.612;2023-05-15T15:34:43;18.10;84.20
5723;DHT22;2886;49.722;8.612;2023-05-15T15:37:08;18.40;91.10
5723;DHT22;2886;49.722;8.612;2023-05-15T15:39:34;18.60;69.90
5723;DHT22;2886;49.722;8.612;2023-05-15T15:42:00;18.80;68.30
5723;DHT22;2886;49.722;8.612;2023-05-15T15:44:25;18.80;65.10
5723;DHT22;2886;49.722;8.612;2023-05-15T15:46:51;19.00;67.80
5723;DHT22;2886;49.722;8.612;2023-05-15T15:49:16;19.20;64.20
5723;DHT22;2886;49.722;8.612;2023-05-15T15:51:42;19.00;62.40
5723;DHT22;2886;49.722;8.612;2023-05-15T15:54:08;18.90;63.50
5723;DHT22;2886;49.722;8.612;2023-05-15T15:56:34;19.10;62.80
5723;DHT22;2886;49.722;8.612;2023-05-15T15:58:59;19.30;61.10
5723;DHT22;2886;49.722;8.612;2023-05-15T16:01:25;19.20;61.10
5723;DHT22;2886;49.722;8.612;2023-05-15T16:03:51;19.30;60.90
5723;DHT22;2886;49.722;8.612;2023-05-15T16:06:18;19.10;61.30
5723;DHT22;2886;49.722;8.612;2023-05-15T16:08:43;19.10;62.00
5723;DHT22;2886;49.722;8.612;2023-05-15T16:11:10;19.10;62.10
5723;DHT22;2886;49.722;8.612;2023-05-15T16:13:35;19.20;61.30
5723;DHT22;2886;49.722;8.612;2023-05-15T16:16:01;18.90;62.30
5723;DHT22;2886;49.722;8.612;2023-05-15T16:18:27;18.80;62.80
5723;DHT22;2886;49.722;8.612;2023-05-15T16:20:52;18.90;62.50
5723;DHT22;2886;49.722;8.612;2023-05-15T16:23:18;19.00;60.90
5723;DHT22;2886;49.722;8.612;2023-05-15T16:25:46;19.00;62.30
5723;DHT22;2886;49.722;8.612;2023-05-15T16:28:11;19.00;60.80
5723;DHT22;2886;49.722;8.612;2023-05-15T16:30:38;19.00;59.60
5723;DHT22;2886;49.722;8.612;2023-05-15T16:33:04;19.00;58.90
5723;DHT22;2886;49.722;8.612;2023-05-15T16:35:29;19.00;60.00
5723;DHT22;2886;49.722;8.612;2023-05-15T16:37:55;19.20;60.20
5723;DHT22;2886;49.722;8.612;2023-05-15T16:40:20;19.20;58.50
5723;DHT22;2886;49.722;8.612;2023-05-15T16:42:46;19.20;58.00